Hlavní strana
METAR-TAF:

METAR-TAF

Letiště :

Vidsel, Švédsko

zeměpisná šířka: 65-52N, zeměpisná délka: 020-08E, výška: 180 m

Aktuální stav počasí

Zpráva byla vytvořena před 38 minutami, v 13:20 UTC
Severoseverozápadní vítr 8 kt
Teplota -3°C
Vlhkost vzduchu 93%
Tlak 997 hPa
Viditelnost: 2200 m
(slabý) mrznoucí, déšť, sníh

METAR: ESPE 181320Z AUTO 34008KT 2200 -FZRASN BKN016/// BKN200/// OVC230/// M03/M04 Q0997

Čas: 14:58 (13:58 UTC)


TAF: chybějící

Stav a předpovědi počasí z více než 4 000 letišť (zprávy METAR a TAF).

Červené a žluté tečky na mapě představují dostupné meteorologické stanice.

Když kurzor umístíte na tečku, zobrazí se název stanice.

Pak kliknutím zobrazíte stav a předpověď počasí.

Chcete-li změnit mapu, kliknutím na zelené tlačítko se znaménkem +mapu přiblížíte, kliknutím na zelené tlačítko se znaménkem – mapu oddálíte a kliknutím na zelené šipky přejdete na sousední mapy.


METAR-TAF: